Estación de Trehualemu
Ultimos registro cada 15 minutos 46
| N° | Estación | Fecha / Hora | Temperatura | Humedad | Lluvia | Velocidad | Dirección | Radiación | Presion |
| 46 | Trehualemu | 02-05-2026 12:00 | 16,6 | 44 | 0 | 0 | 173 | 494 | 1005,1 |
| 45 | Trehualemu | 02-05-2026 11:45 | 16,6 | 44 | 0 | 0 | 173 | 494 | 1005,1 |
| 44 | Trehualemu | 02-05-2026 11:15 | 14,4 | 47 | 0 | 0 | 173 | 427 | 1005,8 |
| 43 | Trehualemu | 02-05-2026 11:00 | 11,2 | 67 | 0 | 0 | 173 | 357 | 1005,8 |
| 42 | Trehualemu | 02-05-2026 10:45 | 11,2 | 67 | 0 | 0 | 173 | 357 | 1005,8 |
| 41 | Trehualemu | 02-05-2026 10:30 | 6,4 | 81 | 0 | 0 | 173 | 265 | 1005,7 |
| 40 | Trehualemu | 02-05-2026 10:15 | 6,4 | 81 | 0 | 0 | 173 | 265 | 1005,7 |
| 39 | Trehualemu | 02-05-2026 10:00 | 4,8 | 82 | 0 | 0 | 173 | 171 | 1005,9 |
| 38 | Trehualemu | 02-05-2026 09:45 | 2,6 | 85 | 0 | 0 | 173 | 54 | 1006 |
| 37 | Trehualemu | 02-05-2026 09:30 | 1,7 | 82 | 0 | 0 | 173 | 25 | 1005,6 |
| 36 | Trehualemu | 02-05-2026 09:15 | 1,1 | 81 | 0 | 0 | 173 | 21 | 1005,9 |
| 35 | Trehualemu | 02-05-2026 08:45 | 0,8 | 80 | 0 | 0 | 173 | 16 | 1005,8 |
| 34 | Trehualemu | 02-05-2026 08:30 | 0,8 | 80 | 0 | 0,4 | 173 | 9 | 1005,6 |
| 33 | Trehualemu | 02-05-2026 08:15 | 0,8 | 80 | 0 | 0 | 173 | 0 | 1005,5 |
| 32 | Trehualemu | 02-05-2026 08:00 | 0,9 | 79 | 0 | 0 | 173 | 0 | 1005,5 |
| 31 | Trehualemu | 02-05-2026 07:45 | 1,2 | 78 | 0 | 0 | 173 | 0 | 1005,5 |
| 30 | Trehualemu | 02-05-2026 07:30 | 1,1 | 79 | 0 | 0 | 173 | 0 | 1005,6 |
| 29 | Trehualemu | 02-05-2026 07:15 | 1,2 | 78 | 0 | 0 | 173 | 0 | 1005,6 |
| 28 | Trehualemu | 02-05-2026 07:00 | 1 | 79 | 0 | 0 | 173 | 0 | 1005,6 |
| 27 | Trehualemu | 02-05-2026 06:45 | 1,2 | 78 | 0 | 0 | 173 | 0 | 1005,9 |
| 26 | Trehualemu | 02-05-2026 06:30 | 0,9 | 79 | 0 | 0 | 173 | 0 | 1006,1 |
| 25 | Trehualemu | 02-05-2026 06:15 | 1 | 79 | 0 | 0 | 173 | 0 | 1006,2 |
| 24 | Trehualemu | 02-05-2026 06:00 | 1 | 79 | 0 | 0 | 173 | 0 | 1006,2 |
| 23 | Trehualemu | 02-05-2026 05:45 | 1,1 | 79 | 0 | 0 | 173 | 0 | 1006,5 |
| 22 | Trehualemu | 02-05-2026 05:30 | 1,2 | 79 | 0 | 0 | 173 | 0 | 1006,7 |
| 21 | Trehualemu | 02-05-2026 05:15 | 1,3 | 78 | 0 | 0 | 173 | 0 | 1006,7 |
| 20 | Trehualemu | 02-05-2026 05:00 | 1,4 | 78 | 0 | 0 | 173 | 0 | 1006,9 |
| 19 | Trehualemu | 02-05-2026 04:45 | 1,6 | 78 | 0 | 0 | 173 | 0 | 1007 |
| 18 | Trehualemu | 02-05-2026 04:30 | 1,9 | 76 | 0 | 0 | 173 | 0 | 1007 |
| 17 | Trehualemu | 02-05-2026 04:15 | 1,9 | 76 | 0 | 0 | 173 | 0 | 1007 |
| 16 | Trehualemu | 02-05-2026 04:00 | 1,8 | 77 | 0 | 0 | 173 | 0 | 1007,2 |
| 15 | Trehualemu | 02-05-2026 03:45 | 1,8 | 78 | 0 | 0 | 173 | 0 | 1007,2 |
| 14 | Trehualemu | 02-05-2026 03:30 | 2 | 77 | 0 | 0 | 173 | 0 | 1007,5 |
| 13 | Trehualemu | 02-05-2026 03:15 | 2,2 | 77 | 0 | 0 | 173 | 0 | 1007,6 |
| 12 | Trehualemu | 02-05-2026 03:00 | 2,1 | 80 | 0 | 0 | 173 | 0 | 1007,8 |
| 11 | Trehualemu | 02-05-2026 02:45 | 2,2 | 81 | 0 | 0 | 173 | 0 | 1007,9 |
| 10 | Trehualemu | 02-05-2026 02:15 | 2,9 | 82 | 0 | 0 | 173 | 0 | 1008,4 |
| 9 | Trehualemu | 02-05-2026 02:00 | 2,9 | 82 | 0 | 0 | 173 | 0 | 1008,4 |
| 8 | Trehualemu | 02-05-2026 01:45 | 2,8 | 85 | 0 | 0 | 173 | 0 | 1008,8 |
| 7 | Trehualemu | 02-05-2026 01:30 | 2,8 | 85 | 0 | 0 | 173 | 0 | 1008,8 |
| 6 | Trehualemu | 02-05-2026 01:15 | 3,6 | 86 | 0 | 0,4 | 173 | 0 | 1009,2 |
| 5 | Trehualemu | 02-05-2026 01:00 | 3,6 | 86 | 0 | 0,4 | 173 | 0 | 1009,2 |
| 4 | Trehualemu | 02-05-2026 00:45 | 4,1 | 88 | 0 | 0 | 182 | 0 | 1009,7 |
| 3 | Trehualemu | 02-05-2026 00:30 | 4,1 | 88 | 0 | 0 | 182 | 0 | 1009,7 |
| 2 | Trehualemu | 02-05-2026 00:15 | 5,3 | 90 | 0 | 0 | 183 | 0 | 1009,8 |
| 1 | Trehualemu | 02-05-2026 00:00 | 5,3 | 90 | 0 | 0 | 183 | 0 | 1009,8 |